Terminal Aerodrome Forecast
Issued by NWS

Home | Current Version | Previous Version | Text Only | Print | Product List | Glossary On
Versions: 1 2 3 4 5 6 7 8 9 10 11 12 13 14 15 16 17 18 19 20 21 22 23 24 25 26 27 28 29 30 31
000
FTUS41 KOKX 180520
TAFTEB
TAF
KTEB 180520Z 1806/1906 16004KT 5SM BR BKN010
     FM180800 17006KT P6SM VCSH OVC050
     FM181000 18006KT 5SM -SHRA BR VCTS OVC030CB
     FM181200 17007KT 2SM -SHRA BR VCTS OVC015CB
      TEMPO 1812/1815 1SM +SHRA BR OVC009
     FM181600 18007KT P6SM SCT015 BKN040
     FM182200 19009KT 6SM -SHRA VCTS OVC035CB PROB30 1822/1824 2SM
      TSRA OVC030CB
     FM190400 20005KT 4SM BR VCSH OVC050=

USA.gov is the U.S. government's official web portal to all federal, state and local government web resources and services.